Terminal Aerodrome Forecast
Issued by NWS Charleston, WV

Current Version | Previous Version | Graphics & Text | Print | Product List | Glossary On
Versions: 1 2 3 4 5 6 7 8 9 10 11 12 13 14 15 16 17 18 19 20 21 22 23
000
FTUS41 KRLX 220900 AAA
TAFBKW
TAF AMD
KBKW 220930Z 2210/2306 19005KT P6SM BKN250
     FM221100 25004KT P6SM OVC100
     FM221500 27009G18KT P6SM OVC040
     FM221800 26010G17KT 5SM SHRA OVC040
     FM222000 27011G20KT P6SM BKN035
     FM222200 31014G24KT P6SM BKN035
     FM230300 31007KT P6SM SCT040=

USA.gov is the U.S. government's official web portal to all federal, state and local government web resources and services.